Alsbach, Germany

7:52 AM CEST on July 25, 2016 (GMT +0200)
Deizisau | | Change Station

Elev 804 ft 48.71 °N, 9.38 °E | Updated 13 seconds ago

Scattered Clouds
Scattered Clouds
69.1 °F
Feels Like 69.1 °F
N
1.3
Wind Variable Wind from ENE
Gusts 2.5 mph

Today
High -- | Low -- °F
--% Chance of Precip.
Yesterday
High -- | Low -- °F
Precip. -- in
Pressure 30.09 in
Visibility 6.2 miles
Clouds Scattered Clouds 3300 ft
Scattered Clouds 30000 ft
Dew Point 64 °F
Humidity 83%
Rainfall 0.00 in
Snow Depth Not available.
5:47 AM 9:09 PM
Waning Gibbous, 69% visible
METAR EDDS 250520Z VRB01KT 9999 SCT033 SCT300 19/17 Q1019 NOSIG
Pressure 30.09 in
Visibility 6.2 miles
Clouds Scattered Clouds 3300 ft
Scattered Clouds 30000 ft
Dew Point 64 °F
Humidity 83%
Rainfall 0.00 in
Snow Depth Not available.
5:47 AM 9:09 PM
Waning Gibbous, 69% visible
METAR EDDS 250520Z VRB01KT 9999 SCT033 SCT300 19/17 Q1019 NOSIG

10-Day Weather Forecast

×

Almanac

Astronomy

Jul. 25, 2016 Rise Set
Actual Time
Civil Twilight
Nautical Twilight
Astronomical Twilight
Moon
Length of Visible Light
Length of Day
Tomorrow will be .
, % of the Moon is Illuminated

Today's Extremes

Country Highs Country Lows

Community

WunderPhotos

Upload Photos

1,927,274 photos uploaded!

WunderBlog® & News

Nearby

Air Quality

  Air Quality AQ Index Pollutant
Not available.

Snow Depth

Station Depth Elevation

Earthquake Activity

City Distance Mag. Time & Date
Minimum magnitude displayed is 2.5.

Coastal Water Temperatures

Place Temperature

Stations

Nearby Weather Stations

Station Location Temp. Windchill Dew Point Humidity Wind Precip. Elev Updated Type